Time;durP1;ratioP1;P1;durP2;ratioP2;P2;SDS_P1;SDS_P2;PMS_P1;PMS_P2;Temp;Humidity;BMP_temperature;BMP_pressure;BME280_temperature;BME280_humidity;BME280_pressure;Samples;Min_cycle;Max_cycle;Signal;HPM_P1;HPM_P2
2023/01/31 00:01:23;;;;;;;14.47;7.13;;;;;;;6.72;71.77;101561.34;5056725;28;20232;-68
2023/01/31 00:03:53;;;;;;;17.87;6.73;;;;;;;6.75;71.72;101563.81;5056531;28;20208;-68
2023/01/31 00:06:24;;;;;;;16.70;7.50;;;;;;;6.65;71.78;101555.63;5056291;28;20215;-69
2023/01/31 00:08:53;;;;;;;19.63;7.77;;;;;;;6.72;71.64;101564.84;5059675;28;20212;-69
2023/01/31 00:11:24;;;;;;;21.57;7.17;;;;;;;6.79;71.40;101566.13;5057999;28;20217;-69
2023/01/31 00:13:53;;;;;;;20.20;6.37;;;;;;;6.77;71.38;101567.19;5062951;28;20204;-68
2023/01/31 00:16:22;;;;;;;17.17;6.63;;;;;;;6.74;71.34;101567.38;5058789;28;20211;-69
2023/01/31 00:18:51;;;;;;;18.90;6.33;;;;;;;6.78;71.04;101563.59;5056625;28;20212;-69
2023/01/31 00:21:21;;;;;;;22.00;8.23;;;;;;;6.65;71.33;101567.94;5056188;28;20243;-69
2023/01/31 00:23:50;;;;;;;15.90;6.53;;;;;;;6.61;71.45;101572.56;5058063;28;20834;-68
2023/01/31 00:26:20;;;;;;;15.97;7.20;;;;;;;6.63;71.25;101565.41;5058399;28;20298;-68
2023/01/31 00:28:50;;;;;;;13.63;6.00;;;;;;;6.66;71.18;101565.22;5056239;28;20285;-66
2023/01/31 00:31:20;;;;;;;13.73;5.57;;;;;;;6.65;71.20;101567.94;5057248;28;20768;-67
2023/01/31 00:33:49;;;;;;;26.93;7.93;;;;;;;6.62;70.97;101568.13;5055247;28;20238;-67
2023/01/31 00:36:19;;;;;;;19.97;8.07;;;;;;;6.56;71.45;101574.66;5060064;28;20214;-67
2023/01/31 00:38:48;;;;;;;19.47;6.60;;;;;;;6.58;71.35;101567.50;5057180;28;20207;-66
2023/01/31 00:41:17;;;;;;;13.30;6.60;;;;;;;6.57;71.34;101562.31;5056661;28;20319;-67
2023/01/31 00:43:45;;;;;;;20.17;7.53;;;;;;;6.53;71.35;101552.91;5056913;28;21746;-65
2023/01/31 00:46:14;;;;;;;19.87;7.03;;;;;;;6.53;71.28;101551.09;5055768;28;20213;-66
2023/01/31 00:48:42;;;;;;;18.83;6.73;;;;;;;6.59;71.25;101556.03;5058815;28;20204;-67
2023/01/31 00:51:10;;;;;;;16.10;6.43;;;;;;;6.48;71.21;101554.97;5057287;28;20228;-68
2023/01/31 00:53:38;;;;;;;17.57;6.43;;;;;;;6.52;71.22;101564.38;5055394;28;20208;-68
2023/01/31 00:56:08;;;;;;;14.70;6.73;;;;;;;6.50;71.50;101559.22;5057278;28;20213;-67
2023/01/31 00:58:38;;;;;;;20.07;7.27;;;;;;;6.48;71.39;101554.97;5057092;28;20207;-68
2023/01/31 01:01:08;;;;;;;21.17;7.83;;;;;;;6.49;70.88;101551.41;5057976;28;20739;-68
2023/01/31 01:03:38;;;;;;;14.63;7.33;;;;;;;6.50;70.61;101553.97;5057006;28;20214;-68
2023/01/31 01:06:07;;;;;;;16.50;7.03;;;;;;;6.43;70.91;101550.84;5057688;28;20344;-68
2023/01/31 01:08:35;;;;;;;12.50;6.47;;;;;;;6.39;70.82;101559.88;5057771;28;20204;-67
2023/01/31 01:11:07;;;;;;;16.13;7.23;;;;;;;6.31;71.28;101558.66;5057862;28;20204;-68
2023/01/31 01:13:35;;;;;;;18.67;6.97;;;;;;;6.29;71.46;101566.66;5057807;28;20207;-68
2023/01/31 01:16:05;;;;;;;21.60;7.70;;;;;;;6.26;71.40;101561.56;5058738;28;20212;-67
2023/01/31 01:18:34;;;;;;;16.63;6.57;;;;;;;6.23;71.10;101568.81;5055835;28;21475;-67
2023/01/31 01:21:10;;;;;;;14.47;7.70;;;;;;;6.12;71.66;101563.34;5059834;28;20305;-66
2023/01/31 01:23:38;;;;;;;17.70;7.53;;;;;;;6.08;71.86;101564.47;5056767;28;20307;-67
2023/01/31 01:26:14;;;;;;;19.07;7.57;;;;;;;6.08;71.93;101581.13;5058063;28;20211;-67
2023/01/31 01:28:41;;;;;;;19.27;7.33;;;;;;;6.08;71.41;101578.47;5058006;28;20207;-67
2023/01/31 01:31:11;;;;;;;20.63;7.50;;;;;;;5.98;71.55;101577.38;5059780;28;20299;-69
2023/01/31 01:33:39;;;;;;;16.43;7.53;;;;;;;5.86;71.90;101573.63;5057196;28;20579;-68
2023/01/31 01:36:12;;;;;;;15.57;7.23;;;;;;;5.85;72.33;101579.00;5054279;28;20215;-67
2023/01/31 01:38:40;;;;;;;18.37;7.83;;;;;;;5.82;72.32;101584.41;5054616;28;20959;-68
2023/01/31 01:41:10;;;;;;;20.60;9.37;;;;;;;5.74;72.42;101574.34;5056765;28;20680;-67
2023/01/31 01:43:43;;;;;;;20.47;7.83;;;;;;;5.74;72.55;101573.50;5054680;28;20676;-67
2023/01/31 01:46:13;;;;;;;16.07;7.40;;;;;;;5.72;72.79;101575.41;5057146;28;20225;-67
2023/01/31 01:48:44;;;;;;;16.87;7.30;;;;;;;5.68;72.92;101586.09;5055218;28;20294;-68
2023/01/31 01:51:18;;;;;;;18.17;7.00;;;;;;;5.65;73.08;101583.63;5056991;28;20211;-68
2023/01/31 01:53:50;;;;;;;21.60;8.13;;;;;;;5.69;72.80;101586.94;5058054;28;20210;-69
2023/01/31 01:56:20;;;;;;;16.20;8.70;;;;;;;5.64;72.61;101584.56;5057015;28;20226;-69
2023/01/31 01:58:54;;;;;;;13.80;6.23;;;;;;;5.64;72.54;101584.56;5053105;28;20303;-68
2023/01/31 02:01:24;;;;;;;14.87;6.47;;;;;;;5.64;72.10;101589.84;5055139;28;20235;-68
2023/01/31 02:03:53;;;;;;;16.80;6.97;;;;;;;5.72;72.06;101588.56;5058679;28;20215;-68
2023/01/31 02:06:22;;;;;;;19.40;7.20;;;;;;;5.76;71.35;101582.16;5058148;28;20358;-67
2023/01/31 02:08:50;;;;;;;15.53;6.93;;;;;;;5.71;71.29;101589.50;5055959;28;20210;-68
2023/01/31 02:11:22;;;;;;;17.93;6.27;;;;;;;5.71;71.18;101592.13;5059194;28;20652;-66
2023/01/31 02:13:53;;;;;;;20.03;7.77;;;;;;;5.69;70.54;101584.31;5056157;28;20918;-68
2023/01/31 02:16:21;;;;;;;19.57;7.20;;;;;;;5.52;71.15;101580.03;5055180;28;20588;-68
2023/01/31 02:18:50;;;;;;;25.30;7.43;;;;;;;5.48;71.71;101573.25;5055262;28;20221;-68
2023/01/31 02:21:51;;;;;;;21.70;7.13;;;;;;;5.50;71.38;101578.44;5055345;28;20224;-71
2023/01/31 02:25:00;;;;;;;20.60;6.33;;;;;;;5.40;71.51;101578.09;5057532;28;20239;-69
2023/01/31 02:28:12;;;;;;;15.30;5.30;;;;;;;5.43;71.65;101585.84;5055246;28;20239;-68
2023/01/31 02:31:18;;;;;;;16.47;5.80;;;;;;;5.41;71.58;101582.44;5016329;28;20235;-67
2023/01/31 02:33:56;;;;;;;17.50;5.83;;;;;;;5.38;71.11;101582.59;5034764;28;20206;-68
2023/01/31 02:36:33;;;;;;;16.27;5.93;;;;;;;5.35;71.72;101588.06;5035666;28;20212;-68
2023/01/31 02:39:08;;;;;;;18.67;5.27;;;;;;;5.41;71.19;101576.31;5034960;28;20211;-68
2023/01/31 02:41:43;;;;;;;20.60;6.33;;;;;;;5.35;70.88;101576.69;5034694;28;20223;-69
2023/01/31 02:47:19;;;;;;;14.67;6.20;;;;;;;5.03;72.04;101571.44;5035021;28;20207;-67
2023/01/31 02:49:54;;;;;;;22.20;5.73;;;;;;;5.05;72.73;101568.75;5034758;28;20219;-68
2023/01/31 02:52:31;;;;;;;17.23;6.50;;;;;;;5.15;72.54;101569.91;5034633;28;20192;-68
2023/01/31 02:57:56;;;;;;;17.93;6.47;;;;;;;5.14;72.37;101569.06;5032674;28;20208;-67
2023/01/31 03:00:25;;;;;;;21.90;6.10;;;;;;;5.14;72.58;101569.06;5033847;28;20578;-68
2023/01/31 03:02:53;;;;;;;17.57;6.37;;;;;;;5.13;72.74;101567.38;5031811;28;20329;-68
2023/01/31 03:05:22;;;;;;;17.80;6.93;;;;;;;5.17;72.75;101573.31;5035148;28;20284;-67
2023/01/31 03:07:54;;;;;;;19.13;6.43;;;;;;;5.20;72.77;101579.22;5033740;28;21064;-67
2023/01/31 03:10:38;;;;;;;18.80;6.17;;;;;;;5.17;72.64;101568.06;5037316;28;20216;-67
2023/01/31 03:13:21;;;;;;;17.30;6.50;;;;;;;5.13;72.74;101575.25;5041777;28;20240;-67
2023/01/31 03:18:57;;;;;;;13.20;5.50;;;;;;;5.16;72.99;101587.41;5037492;28;20219;-69
2023/01/31 03:21:32;;;;;;;14.90;5.87;;;;;;;5.14;73.04;101586.63;5036387;28;20242;-68
2023/01/31 03:24:02;;;;;;;16.33;6.00;;;;;;;5.14;72.91;101586.63;5038277;28;20688;-69
2023/01/31 03:26:29;;;;;;;20.13;5.90;;;;;;;5.13;72.92;101598.06;5037929;28;20230;-69
2023/01/31 03:29:00;;;;;;;14.53;5.80;;;;;;;5.13;72.90;101593.66;5038323;28;20670;-67
2023/01/31 03:31:32;;;;;;;15.23;6.23;;;;;;;5.23;72.45;101596.63;5040741;28;20740;-67
2023/01/31 03:34:04;;;;;;;16.13;6.50;;;;;;;5.15;72.44;101601.47;5057221;28;20660;-66
2023/01/31 03:36:38;;;;;;;17.97;5.77;;;;;;;5.13;72.54;101603.34;5057294;28;20276;-67
2023/01/31 03:39:17;;;;;;;16.23;6.17;;;;;;;5.13;72.42;101604.19;5058152;28;20751;-68
2023/01/31 03:41:56;;;;;;;14.50;6.03;;;;;;;5.25;72.09;101615.81;5058530;28;20242;-67
2023/01/31 03:44:34;;;;;;;22.00;6.43;;;;;;;5.35;71.63;101619.63;5057071;28;20296;-68
2023/01/31 03:47:06;;;;;;;14.67;6.47;;;;;;;5.34;71.18;101623.19;5055892;28;20218;-68
2023/01/31 03:49:36;;;;;;;16.53;5.87;;;;;;;5.38;70.90;101623.84;5057923;28;20211;-67
2023/01/31 03:52:09;;;;;;;18.33;5.07;;;;;;;5.35;70.53;101629.28;5056669;28;20224;-68
2023/01/31 03:54:41;;;;;;;17.57;5.70;;;;;;;5.18;70.80;101633.72;5056439;28;20215;-68
2023/01/31 03:57:17;;;;;;;15.43;6.07;;;;;;;5.12;71.53;101633.19;5059511;28;20208;-67
2023/01/31 03:59:52;;;;;;;16.37;5.83;;;;;;;5.08;71.70;101634.31;5057568;28;20677;-67
2023/01/31 04:02:23;;;;;;;14.10;5.97;;;;;;;5.13;71.81;101635.72;5057773;28;20254;-68
2023/01/31 04:04:55;;;;;;;21.20;5.77;;;;;;;5.21;71.71;101630.91;5057324;28;20762;-66
2023/01/31 04:07:25;;;;;;;19.27;6.83;;;;;;;5.23;71.33;101626.41;5055951;28;20303;-68
2023/01/31 04:09:52;;;;;;;16.97;6.20;;;;;;;5.13;71.63;101624.38;5057946;28;20333;-68
2023/01/31 04:12:20;;;;;;;20.47;5.97;;;;;;;5.08;72.37;101631.69;5056906;28;20238;-67
2023/01/31 04:14:48;;;;;;;20.87;7.00;;;;;;;5.09;72.59;101628.13;5056603;28;20219;-67
2023/01/31 04:17:15;;;;;;;14.37;6.07;;;;;;;5.23;71.67;101630.81;5057849;28;20204;-67
2023/01/31 04:19:43;;;;;;;17.37;6.50;;;;;;;5.14;71.73;101626.06;5055157;28;20215;-67
2023/01/31 04:22:11;;;;;;;16.53;6.97;;;;;;;5.01;72.28;101635.59;5057727;28;20226;-67
2023/01/31 04:24:40;;;;;;;18.07;6.37;;;;;;;4.98;72.75;101630.47;5055794;28;20215;-67
2023/01/31 04:27:08;;;;;;;17.13;6.37;;;;;;;5.06;72.46;101628.28;5054381;28;20214;-67
2023/01/31 04:29:36;;;;;;;18.13;7.27;;;;;;;5.13;71.99;101632.25;5057193;28;20216;-66
2023/01/31 04:32:04;;;;;;;15.87;6.00;;;;;;;5.08;71.99;101637.78;5057214;28;21085;-68
2023/01/31 04:34:32;;;;;;;19.27;6.97;;;;;;;5.13;72.11;101629.63;5058246;28;20235;-69
2023/01/31 04:37:00;;;;;;;20.17;6.27;;;;;;;5.18;71.57;101630.25;5054146;28;20214;-68
2023/01/31 04:39:28;;;;;;;19.03;7.20;;;;;;;5.11;71.75;101626.22;5055762;28;20215;-67
2023/01/31 04:41:57;;;;;;;20.50;7.33;;;;;;;5.00;72.66;101612.84;5057299;28;20212;-67
2023/01/31 04:44:25;;;;;;;16.27;6.67;;;;;;;5.07;72.41;101614.19;5057215;28;20216;-67
2023/01/31 04:46:52;;;;;;;25.70;8.20;;;;;;;4.98;73.09;101609.44;5054917;28;20203;-67
2023/01/31 04:49:20;;;;;;;18.43;7.77;;;;;;;4.92;73.27;101610.66;5057044;28;20292;-67
2023/01/31 04:51:48;;;;;;;19.60;7.33;;;;;;;4.89;73.63;101611.66;5056826;28;20211;-66
2023/01/31 04:54:18;;;;;;;20.27;7.60;;;;;;;4.87;73.99;101613.50;5056971;28;20269;-67
2023/01/31 04:56:46;;;;;;;19.73;7.90;;;;;;;4.92;73.99;101606.22;5058522;28;20206;-68
2023/01/31 04:59:15;;;;;;;26.97;8.73;;;;;;;5.02;73.22;101616.22;5055047;28;20860;-68
2023/01/31 05:01:43;;;;;;;22.87;10.13;;;;;;;4.89;73.47;101622.16;5054303;28;20226;-68
2023/01/31 05:04:11;;;;;;;20.57;8.53;;;;;;;4.98;73.10;101604.19;5054191;28;20587;-68
2023/01/31 05:06:39;;;;;;;18.43;8.27;;;;;;;4.96;73.23;101604.28;5056293;28;20699;-67
2023/01/31 05:09:07;;;;;;;22.43;8.67;;;;;;;5.05;72.97;101605.53;5053248;28;20218;-67
2023/01/31 05:11:34;;;;;;;22.97;8.37;;;;;;;5.01;73.01;101609.28;5055792;28;20299;-67
2023/01/31 05:14:02;;;;;;;17.37;8.07;;;;;;;5.00;72.74;101599.72;5057907;28;20208;-67
2023/01/31 05:16:31;;;;;;;23.93;8.40;;;;;;;4.90;73.16;101597.59;5058177;28;21750;-68
2023/01/31 05:18:59;;;;;;;25.07;8.67;;;;;;;4.86;73.64;101596.03;5055374;28;20207;-68
2023/01/31 05:21:27;;;;;;;18.07;8.83;;;;;;;4.93;73.29;101607.06;5056864;28;20202;-68
2023/01/31 05:23:55;;;;;;;26.57;10.30;;;;;;;4.98;72.88;101596.31;5055982;28;20322;-66
2023/01/31 05:26:23;;;;;;;27.57;8.63;;;;;;;4.99;72.71;101596.22;5053484;28;21004;-67
2023/01/31 05:28:51;;;;;;;24.20;8.97;;;;;;;4.86;73.17;101598.66;5053706;28;20663;-66
2023/01/31 05:31:18;;;;;;;24.23;8.70;;;;;;;4.92;73.31;101592.25;5053737;28;20261;-68
2023/01/31 05:33:48;;;;;;;23.63;9.57;;;;;;;4.91;73.06;101601.06;5053416;28;20199;-67
2023/01/31 05:36:16;;;;;;;19.83;8.40;;;;;;;4.91;73.25;101595.81;5053717;28;20757;-68
2023/01/31 05:38:43;;;;;;;24.17;9.03;;;;;;;4.91;72.96;101583.50;5057897;28;21150;-68
2023/01/31 05:41:11;;;;;;;24.20;9.33;;;;;;;4.87;73.15;101579.34;5054866;28;20630;-68
2023/01/31 05:43:39;;;;;;;23.10;9.03;;;;;;;4.85;73.34;101589.09;5054498;28;20235;-68
2023/01/31 05:46:07;;;;;;;22.37;8.97;;;;;;;4.74;73.68;101594.09;5055830;28;20214;-67
2023/01/31 05:48:34;;;;;;;17.77;8.03;;;;;;;4.73;73.91;101581.91;5055467;28;20284;-68
2023/01/31 05:51:04;;;;;;;19.00;7.93;;;;;;;4.71;74.21;101586.38;5054332;28;20209;-68
2023/01/31 05:53:32;;;;;;;18.23;7.90;;;;;;;4.81;73.74;101581.47;5052371;28;20214;-68
2023/01/31 05:55:59;;;;;;;20.40;8.87;;;;;;;4.83;73.87;101595.38;5056597;28;20221;-68
2023/01/31 05:58:28;;;;;;;28.90;8.87;;;;;;;4.86;74.03;101593.41;5048796;28;20222;-67
2023/01/31 06:00:56;;;;;;;23.40;9.37;;;;;;;4.98;73.32;101583.16;5045919;28;20735;-68
2023/01/31 06:03:23;;;;;;;19.90;7.80;;;;;;;5.08;72.97;101585.19;5050476;28;20235;-66
2023/01/31 06:05:51;;;;;;;25.60;8.77;;;;;;;5.19;72.70;101603.00;5047497;28;20222;-68
2023/01/31 06:08:21;;;;;;;23.63;8.93;;;;;;;5.26;72.45;101607.00;5046261;28;20302;-69
2023/01/31 06:10:48;;;;;;;20.60;8.60;;;;;;;5.29;72.41;101609.41;5046136;28;20349;-69
2023/01/31 06:13:16;;;;;;;19.70;8.30;;;;;;;5.34;71.98;101601.28;5045878;28;20215;-68
2023/01/31 06:15:44;;;;;;;23.10;9.00;;;;;;;5.29;72.24;101605.00;5046801;28;20249;-68
2023/01/31 06:18:13;;;;;;;25.07;9.37;;;;;;;5.37;71.71;101601.94;5047880;28;20298;-67
2023/01/31 06:20:41;;;;;;;24.53;8.57;;;;;;;5.27;72.27;101595.53;5047299;28;20207;-67
2023/01/31 06:23:08;;;;;;;23.43;8.80;;;;;;;5.22;72.68;101592.31;5046468;28;20238;-69
2023/01/31 06:25:37;;;;;;;20.40;9.20;;;;;;;5.33;72.54;101599.59;5051457;28;20211;-68
2023/01/31 06:28:05;;;;;;;19.83;9.17;;;;;;;5.21;72.45;101587.97;5051260;28;20872;-69
2023/01/31 06:30:33;;;;;;;21.13;9.17;;;;;;;5.24;72.65;101595.69;5046816;28;20207;-69
2023/01/31 06:33:01;;;;;;;25.90;10.90;;;;;;;5.26;72.70;101594.69;5033243;28;20347;-68
2023/01/31 06:35:29;;;;;;;24.87;9.90;;;;;;;5.24;72.53;101596.53;5029628;28;20211;-68
2023/01/31 06:37:57;;;;;;;22.07;9.83;;;;;;;5.23;72.60;101591.38;5026338;28;20208;-69
2023/01/31 06:40:25;;;;;;;24.73;10.00;;;;;;;5.15;72.90;101601.47;5024751;28;20223;-67
2023/01/31 06:42:54;;;;;;;22.60;10.47;;;;;;;5.16;72.95;101598.75;5031160;28;20266;-69
2023/01/31 06:45:22;;;;;;;23.27;10.13;;;;;;;5.11;72.95;101595.53;5031874;28;20212;-63
2023/01/31 06:47:50;;;;;;;23.70;13.20;;;;;;;5.20;72.92;101596.78;5031428;28;20447;-69
2023/01/31 06:50:18;;;;;;;24.93;10.50;;;;;;;5.10;73.01;101603.53;5033391;28;20242;-69
2023/01/31 06:52:46;;;;;;;19.30;8.97;;;;;;;5.06;72.96;101612.50;5036779;28;20655;-71
2023/01/31 06:55:14;;;;;;;25.00;10.30;;;;;;;4.99;73.34;101604.13;5034466;28;20204;-73
2023/01/31 06:57:49;;;;;;;27.40;10.43;;;;;;;4.96;73.75;101606.06;5039797;28;20214;-73
2023/01/31 07:00:19;;;;;;;20.70;9.77;;;;;;;5.03;73.38;101615.28;5037686;28;20204;-66
2023/01/31 07:02:48;;;;;;;23.70;10.60;;;;;;;5.09;72.96;101620.22;5037599;28;20605;-68
2023/01/31 07:05:17;;;;;;;24.77;11.53;;;;;;;5.08;72.60;101622.00;5043137;28;20239;-67
2023/01/31 07:07:45;;;;;;;24.37;10.33;;;;;;;4.92;72.67;101616.72;5036519;28;20283;-68
2023/01/31 07:10:13;;;;;;;22.97;10.90;;;;;;;4.90;72.94;101629.13;5041779;28;20564;-68
2023/01/31 07:12:41;;;;;;;28.23;10.63;;;;;;;4.83;73.05;101637.44;5038644;28;20744;-68
2023/01/31 07:15:10;;;;;;;24.53;10.30;;;;;;;4.86;73.09;101650.38;5041373;28;20208;-68
2023/01/31 07:17:43;;;;;;;22.07;10.07;;;;;;;4.84;73.05;101645.22;5039997;28;20673;-67
2023/01/31 07:20:11;;;;;;;19.07;10.07;;;;;;;4.85;72.91;101646.91;5046230;28;20219;-68
2023/01/31 07:22:39;;;;;;;21.57;9.73;;;;;;;4.81;72.74;101666.41;5039877;28;20208;-67
2023/01/31 07:25:09;;;;;;;18.93;9.47;;;;;;;4.71;73.13;101664.34;5042152;28;20290;-67
2023/01/31 07:27:37;;;;;;;26.17;10.70;;;;;;;4.73;72.93;101671.25;5038632;28;20208;-68
2023/01/31 07:30:06;;;;;;;23.90;10.53;;;;;;;4.77;72.56;101669.28;5041640;28;20246;-68
2023/01/31 07:32:34;;;;;;;17.00;9.13;;;;;;;4.66;72.83;101669.03;5053355;28;20242;-69
2023/01/31 07:35:03;;;;;;;19.60;8.83;;;;;;;4.66;73.12;101675.09;5059698;28;20211;-67
2023/01/31 07:37:31;;;;;;;21.77;9.80;;;;;;;4.68;72.93;101668.00;5056296;28;20337;-70
2023/01/31 07:39:59;;;;;;;16.80;9.03;;;;;;;4.72;72.66;101671.31;5056392;28;20243;-69
2023/01/31 07:42:28;;;;;;;21.20;9.33;;;;;;;4.72;72.59;101672.16;5059501;28;20737;-69
2023/01/31 07:44:56;;;;;;;20.33;8.47;;;;;;;4.63;72.87;101671.81;5056137;28;20334;-69
2023/01/31 07:47:24;;;;;;;17.33;7.77;;;;;;;4.72;72.71;101659.03;5058478;28;20207;-68
2023/01/31 07:49:51;;;;;;;18.97;8.13;;;;;;;4.84;72.32;101660.97;5053611;28;20337;-67
2023/01/31 07:52:20;;;;;;;16.33;8.10;;;;;;;4.93;71.82;101655.22;5056378;28;20218;-67
2023/01/31 07:54:48;;;;;;;17.93;8.33;;;;;;;4.93;71.35;101657.00;5055526;28;20304;-68
2023/01/31 07:57:16;;;;;;;17.30;8.13;;;;;;;4.92;71.79;101664.03;5056773;28;20657;-67
2023/01/31 07:59:44;;;;;;;17.00;7.40;;;;;;;5.01;71.17;101667.13;5055902;28;20215;-67
2023/01/31 08:04:59;;;;;;;18.37;7.90;;;;;;;4.89;71.48;101674.75;5058506;28;20365;-69
2023/01/31 08:07:29;;;;;;;18.23;8.03;;;;;;;4.88;71.55;101672.19;5057664;28;20212;-68
2023/01/31 08:09:57;;;;;;;17.37;7.97;;;;;;;4.91;71.38;101678.13;5056098;28;20215;-68
2023/01/31 08:12:25;;;;;;;14.43;7.17;;;;;;;4.91;71.51;101683.41;5056387;28;20212;-68
2023/01/31 08:14:52;;;;;;;16.40;6.90;;;;;;;5.02;71.83;101671.44;5059151;28;20203;-67
2023/01/31 08:17:20;;;;;;;18.63;7.33;;;;;;;5.18;70.93;101678.41;5057083;28;20202;-68
2023/01/31 08:19:48;;;;;;;16.87;7.17;;;;;;;5.18;70.76;101677.56;5057186;28;20291;-69
2023/01/31 08:22:15;;;;;;;17.43;6.97;;;;;;;5.26;70.84;101667.47;5055949;28;20207;-69
2023/01/31 08:24:44;;;;;;;18.13;7.03;;;;;;;5.45;70.31;101665.53;5057509;28;20239;-69
2023/01/31 08:27:12;;;;;;;15.97;6.67;;;;;;;5.54;69.62;101662.34;5054142;28;20219;-68
2023/01/31 08:29:40;;;;;;;15.87;6.23;;;;;;;5.38;69.79;101660.66;5057553;28;20370;-68
2023/01/31 08:32:08;;;;;;;19.73;6.23;;;;;;;5.51;69.97;101673.06;5056717;28;20235;-68
2023/01/31 08:34:35;;;;;;;16.63;6.23;;;;;;;5.64;69.61;101666.16;5059663;28;20212;-69
2023/01/31 08:37:03;;;;;;;16.07;7.37;;;;;;;5.67;69.14;101671.25;5058483;28;20230;-67
2023/01/31 08:39:31;;;;;;;14.20;6.17;;;;;;;5.66;69.11;101671.34;5057260;28;20228;-66
2023/01/31 08:42:00;;;;;;;13.70;6.33;;;;;;;5.78;69.00;101669.78;5055176;28;20295;-67
2023/01/31 08:44:28;;;;;;;13.20;6.50;;;;;;;5.77;68.71;101662.81;5054096;28;20240;-69
2023/01/31 08:46:57;;;;;;;20.97;6.80;;;;;;;5.77;68.90;101662.81;5054438;28;20249;-68
2023/01/31 08:49:25;;;;;;;15.60;6.30;;;;;;;5.82;68.67;101658.97;5057264;28;20654;-67
2023/01/31 08:51:53;;;;;;;14.10;6.17;;;;;;;5.75;69.06;101648.91;5054474;28;20795;-69
2023/01/31 08:54:21;;;;;;;15.13;6.70;;;;;;;5.71;69.70;101650.88;5055165;28;20585;-68
2023/01/31 08:56:49;;;;;;;15.23;7.30;;;;;;;5.74;70.32;101657.72;5054983;28;20210;-69
2023/01/31 08:59:18;;;;;;;14.53;6.63;;;;;;;5.81;70.59;101664.31;5055989;28;20200;-69
2023/01/31 09:01:46;;;;;;;15.50;6.33;;;;;;;5.84;70.84;101679.97;5046719;28;20837;-67
2023/01/31 09:04:14;;;;;;;13.15;6.30;;;;;;;5.89;70.65;101680.59;5054801;28;20211;-69
2023/01/31 09:06:42;;;;;;;15.20;6.97;;;;;;;5.88;71.04;101676.25;5053722;28;20221;-68
2023/01/31 09:09:10;;;;;;;15.93;6.83;;;;;;;5.94;71.01;101673.25;5055895;28;20293;-68
2023/01/31 09:11:38;;;;;;;16.90;6.70;;;;;;;5.96;71.18;101679.28;5057500;28;20338;-69
2023/01/31 09:14:06;;;;;;;15.57;6.67;;;;;;;6.01;71.15;101679.84;5058690;28;20301;-68
2023/01/31 09:16:35;;;;;;;16.90;7.60;;;;;;;6.06;71.40;101680.47;5059092;28;20275;-70
2023/01/31 09:19:03;;;;;;;14.07;6.57;;;;;;;6.17;71.16;101671.91;5062853;28;21096;-70
2023/01/31 09:21:31;;;;;;;21.13;8.60;;;;;;;6.17;71.45;101656.94;5062962;28;20311;-68
2023/01/31 09:24:02;;;;;;;17.33;7.30;;;;;;;6.32;71.17;101663.09;5061720;28;20207;-70
2023/01/31 09:26:31;;;;;;;22.80;7.60;;;;;;;6.43;70.92;101650.97;5059995;28;20236;-69
2023/01/31 09:29:00;;;;;;;17.50;7.73;;;;;;;6.64;70.44;101646.19;5060341;28;20272;-69
2023/01/31 09:31:28;;;;;;;21.60;8.27;;;;;;;6.73;69.58;101644.75;5057545;28;20235;-69
2023/01/31 09:33:58;;;;;;;22.57;7.47;;;;;;;6.82;69.26;101638.91;5058763;28;20212;-70
2023/01/31 09:36:26;;;;;;;18.10;7.93;;;;;;;6.95;68.86;101629.28;5057077;28;20257;-69
2023/01/31 09:38:55;;;;;;;22.27;7.97;;;;;;;7.21;67.56;101635.56;5054942;28;20214;-69
2023/01/31 09:41:29;;;;;;;18.07;7.17;;;;;;;7.42;66.52;101634.16;5055681;28;20679;-69
2023/01/31 09:44:02;;;;;;;17.00;7.37;;;;;;;7.35;66.36;101635.50;5056889;28;22501;-70
2023/01/31 09:46:36;;;;;;;24.87;8.53;;;;;;;7.26;66.98;101629.97;5058059;28;20300;-70
2023/01/31 09:49:10;;;;;;;17.83;8.13;;;;;;;7.30;66.92;101644.69;5055687;28;20235;-69
2023/01/31 09:51:39;;;;;;;20.00;7.40;;;;;;;7.26;66.91;101643.16;5058878;28;20208;-70
2023/01/31 09:54:17;;;;;;;17.57;7.70;;;;;;;7.27;66.83;101636.97;5057598;28;20226;-69
2023/01/31 09:56:54;;;;;;;25.80;8.20;;;;;;;7.20;66.78;101633.03;5054943;28;20204;-69
2023/01/31 09:59:26;;;;;;;14.40;6.80;;;;;;;7.13;67.34;101632.53;5057965;28;20208;-69
2023/01/31 10:02:03;;;;;;;19.13;7.33;;;;;;;7.11;67.36;101650.28;5056228;28;20233;-69
2023/01/31 10:04:44;;;;;;;17.53;7.33;;;;;;;7.09;67.76;101657.44;5055804;28;20215;-69
2023/01/31 10:07:17;;;;;;;20.40;8.83;;;;;;;7.09;67.75;101655.66;5057555;28;20582;-70
2023/01/31 10:09:53;;;;;;;18.40;7.70;;;;;;;7.06;67.86;101650.56;5054210;28;20209;-68
2023/01/31 10:12:25;;;;;;;20.03;7.67;;;;;;;6.99;68.38;101656.31;5058136;28;20239;-68
2023/01/31 10:14:55;;;;;;;21.83;7.80;;;;;;;7.03;68.56;101640.22;5054581;28;21070;-69
2023/01/31 10:17:28;;;;;;;21.77;8.43;;;;;;;6.99;68.81;101628.16;5055512;28;20583;-68
2023/01/31 10:20:02;;;;;;;20.87;8.83;;;;;;;6.97;69.32;101627.41;5054810;28;20201;-69
2023/01/31 10:22:38;;;;;;;25.73;11.17;;;;;;;7.06;68.70;101632.09;5053979;28;20219;-68
2023/01/31 10:25:19;;;;;;;25.53;8.23;;;;;;;7.14;68.62;101650.91;5058702;28;20205;-69
2023/01/31 10:27:52;;;;;;;19.50;8.70;;;;;;;7.22;68.20;101647.78;5058604;28;20247;-69
2023/01/31 10:30:24;;;;;;;20.73;8.90;;;;;;;7.20;68.13;101633.03;5056990;28;20244;-69
2023/01/31 10:32:58;;;;;;;19.50;7.67;;;;;;;7.08;68.03;101624.94;5055824;28;20276;-68
2023/01/31 10:35:33;;;;;;;21.80;8.27;;;;;;;7.02;68.33;101641.16;5055063;28;20312;-69
2023/01/31 10:38:05;;;;;;;23.07;9.70;;;;;;;7.06;68.17;101647.06;5056237;28;20219;-68
2023/01/31 10:40:37;;;;;;;19.60;7.87;;;;;;;7.05;68.07;101630.41;5057720;28;20559;-68
2023/01/31 10:43:16;;;;;;;21.27;7.87;;;;;;;7.15;68.33;101628.03;5058919;28;20270;-70
2023/01/31 10:45:44;;;;;;;21.37;7.43;;;;;;;7.23;67.89;101643.34;5055778;28;20226;-69
2023/01/31 10:48:16;;;;;;;20.00;8.03;;;;;;;7.24;68.04;101642.41;5055272;28;20661;-68
2023/01/31 10:51:03;;;;;;;20.13;8.30;;;;;;;7.21;67.93;101637.34;5053729;28;20384;-69
2023/01/31 10:53:44;;;;;;;19.47;8.10;;;;;;;7.24;67.79;101634.50;5057793;28;20769;-68
2023/01/31 10:56:19;;;;;;;17.57;7.57;;;;;;;7.24;68.06;101642.41;5055213;28;20420;-68
2023/01/31 10:58:48;;;;;;;19.23;8.57;;;;;;;7.20;68.07;101635.66;5055056;28;20216;-69
2023/01/31 11:01:16;;;;;;;16.57;6.77;;;;;;;7.15;68.31;101620.97;5057279;28;20592;-69
2023/01/31 11:03:55;;;;;;;18.30;7.00;;;;;;;7.18;68.16;101620.78;5058282;28;20248;-68
2023/01/31 11:06:25;;;;;;;20.17;7.67;;;;;;;7.19;68.29;101618.97;5054544;28;20316;-69
2023/01/31 11:08:56;;;;;;;17.93;6.63;;;;;;;7.20;68.36;101604.84;5056711;28;20556;-68
2023/01/31 11:11:26;;;;;;;20.13;7.93;;;;;;;7.27;68.00;101586.81;5056809;28;20209;-68
2023/01/31 11:13:58;;;;;;;21.43;7.53;;;;;;;7.33;67.84;101575.84;5058854;28;20220;-68
2023/01/31 11:16:29;;;;;;;22.00;7.83;;;;;;;7.34;67.40;101556.44;5058659;28;20291;-69
2023/01/31 11:18:59;;;;;;;20.37;7.23;;;;;;;7.29;67.56;101554.13;5052519;28;20607;-69
2023/01/31 11:21:31;;;;;;;17.90;7.27;;;;;;;7.33;67.85;101545.03;5055785;28;20208;-70
2023/01/31 11:24:03;;;;;;;20.37;7.60;;;;;;;7.28;67.78;101546.31;5056058;28;20314;-70
2023/01/31 11:26:33;;;;;;;17.57;7.90;;;;;;;7.30;68.16;101545.22;5059149;28;20294;-71
2023/01/31 11:29:07;;;;;;;18.33;7.93;;;;;;;7.34;67.88;101543.25;5056558;28;20201;-72
2023/01/31 11:31:41;;;;;;;18.20;7.40;;;;;;;7.28;68.23;101546.31;5057184;28;20252;-72
2023/01/31 11:34:19;;;;;;;25.93;7.67;;;;;;;7.28;68.25;101547.16;5059415;28;20243;-69
2023/01/31 11:36:49;;;;;;;17.63;7.70;;;;;;;7.27;68.22;101544.59;5060322;28;20205;-70
2023/01/31 11:39:27;;;;;;;20.33;8.17;;;;;;;7.27;68.31;101523.50;5058237;28;20210;-70
2023/01/31 11:41:55;;;;;;;22.50;7.90;;;;;;;7.32;68.10;101506.41;5057931;28;20703;-69
2023/01/31 11:44:23;;;;;;;19.00;8.17;;;;;;;7.35;67.80;101500.09;5064058;28;20947;-69
2023/01/31 11:46:55;;;;;;;31.90;11.10;;;;;;;7.36;67.34;101488.59;5060200;28;20234;-69
2023/01/31 11:49:29;;;;;;;31.50;12.40;;;;;;;7.26;67.60;101484.88;5060539;28;20578;-68
2023/01/31 11:52:00;;;;;;;25.90;11.03;;;;;;;7.18;67.66;101480.97;5059367;28;20206;-68